MAPA DE AEROPUERTO

INFORMACIÓN METAR y TAF

METAR FOR LELN
ADDS - METARS form results

(0946 UTC 07 May 2021)
Data provider http://aviationweather.gov/metar/data/
 
METAR text: LELN 070930Z 20008KT 170V230 CAVOK 16/08 Q1020
Conditions at: LELN (LEON/VIRGEN CAMI, ES) observed 0930 UTC 07 May 2021
Temperature: 16.0°C (61°F)
Dewpoint: 8.0°C (46°F) [RH = 59%]
Pressure (altimeter): 30.12 inches Hg (1020.0 mb)
Winds: from the SSW (200 degrees) at 9 MPH (8 knots; 4.1 m/s)
Visibility: 6 or more miles (10+ km)
Ceiling: ceiling and visibility are OK
Clouds: unknown
Weather: no significant weather observed at this time

METAR text: LELN 070900Z 22006KT 160V250 CAVOK 15/07 Q1020
Conditions at: LELN (LEON/VIRGEN CAMI, ES) observed 0900 UTC 07 May 2021
Temperature: 15.0°C (59°F)
Dewpoint: 7.0°C (45°F) [RH = 59%]
Pressure (altimeter): 30.12 inches Hg (1020.0 mb)
Winds: from the SW (220 degrees) at 7 MPH (6 knots; 3.1 m/s)
Visibility: 6 or more miles (10+ km)
Ceiling: ceiling and visibility are OK
Clouds: unknown
Weather: no significant weather observed at this time

Forecast for: LELN (LEON/VIRGEN CAMI, ES)
Text: TAF LELN 070800Z 0709/0809 25006KT CAVOK TX23/0714Z TN08/0805Z
Forecast period: 0900 UTC 07 May 2021 to 0900 UTC 08 May 2021
Forecast type: FROM: standard forecast or significant change
Winds: from the WSW (250 degrees) at 7 MPH (6 knots; 3.1 m/s)
Visibility: 6 or more miles (10+ km)
Ceiling: unknown
Clouds: missing
Weather: no significant weather forecast for this period